sensor_id;sensor_type;location;lat;lon;timestamp;temperature;humidity
19555;DHT22;9924;50.828;6.440;2023-06-14T00:02:02;15.60;99.90
19555;DHT22;9924;50.828;6.440;2023-06-14T00:04:47;15.40;99.90
19555;DHT22;9924;50.828;6.440;2023-06-14T00:07:37;15.30;99.90
19555;DHT22;9924;50.828;6.440;2023-06-14T00:10:22;15.30;99.90
19555;DHT22;9924;50.828;6.440;2023-06-14T00:13:10;15.20;99.90
19555;DHT22;9924;50.828;6.440;2023-06-14T00:15:54;15.20;99.90
19555;DHT22;9924;50.828;6.440;2023-06-14T00:18:39;15.30;99.90
19555;DHT22;9924;50.828;6.440;2023-06-14T00:21:23;15.20;99.90
19555;DHT22;9924;50.828;6.440;2023-06-14T00:24:08;15.20;99.90
19555;DHT22;9924;50.828;6.440;2023-06-14T00:26:52;15.10;99.90
19555;DHT22;9924;50.828;6.440;2023-06-14T00:29:36;15.00;99.90
19555;DHT22;9924;50.828;6.440;2023-06-14T00:32:20;14.90;99.90
19555;DHT22;9924;50.828;6.440;2023-06-14T00:35:09;14.80;99.90
19555;DHT22;9924;50.828;6.440;2023-06-14T00:37:54;14.80;99.90
19555;DHT22;9924;50.828;6.440;2023-06-14T00:40:39;14.70;99.90
19555;DHT22;9924;50.828;6.440;2023-06-14T00:43:23;14.70;99.90
19555;DHT22;9924;50.828;6.440;2023-06-14T00:46:07;14.60;99.90
19555;DHT22;9924;50.828;6.440;2023-06-14T00:48:52;14.60;99.90
19555;DHT22;9924;50.828;6.440;2023-06-14T00:51:36;14.50;99.90
19555;DHT22;9924;50.828;6.440;2023-06-14T00:54:21;14.50;99.90
19555;DHT22;9924;50.828;6.440;2023-06-14T00:57:06;14.50;99.90
19555;DHT22;9924;50.828;6.440;2023-06-14T00:59:51;14.40;99.90
19555;DHT22;9924;50.828;6.440;2023-06-14T01:02:37;14.30;99.90
19555;DHT22;9924;50.828;6.440;2023-06-14T01:05:21;14.20;99.90
19555;DHT22;9924;50.828;6.440;2023-06-14T01:09:08;14.20;99.90
19555;DHT22;9924;50.828;6.440;2023-06-14T01:11:31;14.10;99.90
19555;DHT22;9924;50.828;6.440;2023-06-14T01:14:16;14.10;99.90
19555;DHT22;9924;50.828;6.440;2023-06-14T01:17:02;14.10;99.90
19555;DHT22;9924;50.828;6.440;2023-06-14T01:19:46;14.00;99.90
19555;DHT22;9924;50.828;6.440;2023-06-14T01:22:31;14.00;99.90
19555;DHT22;9924;50.828;6.440;2023-06-14T01:25:15;14.00;99.90
19555;DHT22;9924;50.828;6.440;2023-06-14T01:28:04;14.00;99.90
19555;DHT22;9924;50.828;6.440;2023-06-14T01:30:55;14.00;99.90
19555;DHT22;9924;50.828;6.440;2023-06-14T01:33:39;13.90;99.90
19555;DHT22;9924;50.828;6.440;2023-06-14T01:36:26;14.00;99.90
19555;DHT22;9924;50.828;6.440;2023-06-14T01:39:14;14.00;99.90
19555;DHT22;9924;50.828;6.440;2023-06-14T01:41:59;13.90;99.90
19555;DHT22;9924;50.828;6.440;2023-06-14T01:44:44;14.00;99.90
19555;DHT22;9924;50.828;6.440;2023-06-14T01:47:30;14.00;99.90
19555;DHT22;9924;50.828;6.440;2023-06-14T01:50:15;14.00;99.90
19555;DHT22;9924;50.828;6.440;2023-06-14T01:53:00;13.90;99.90
19555;DHT22;9924;50.828;6.440;2023-06-14T01:55:45;13.90;99.90
19555;DHT22;9924;50.828;6.440;2023-06-14T01:58:32;13.80;99.90
19555;DHT22;9924;50.828;6.440;2023-06-14T02:01:17;13.80;99.90
19555;DHT22;9924;50.828;6.440;2023-06-14T02:04:03;13.70;99.90
19555;DHT22;9924;50.828;6.440;2023-06-14T02:06:47;13.70;99.90
19555;DHT22;9924;50.828;6.440;2023-06-14T02:09:31;13.60;99.90
19555;DHT22;9924;50.828;6.440;2023-06-14T02:12:16;13.60;99.90
19555;DHT22;9924;50.828;6.440;2023-06-14T02:15:00;13.60;99.90
19555;DHT22;9924;50.828;6.440;2023-06-14T02:17:45;13.60;99.90
19555;DHT22;9924;50.828;6.440;2023-06-14T02:20:31;13.40;99.90
19555;DHT22;9924;50.828;6.440;2023-06-14T02:23:15;13.30;99.90
19555;DHT22;9924;50.828;6.440;2023-06-14T02:25:59;13.20;99.90
19555;DHT22;9924;50.828;6.440;2023-06-14T02:28:43;13.10;99.90
19555;DHT22;9924;50.828;6.440;2023-06-14T02:31:28;13.00;99.90
19555;DHT22;9924;50.828;6.440;2023-06-14T02:34:13;12.90;99.90
19555;DHT22;9924;50.828;6.440;2023-06-14T02:36:57;12.70;99.90
19555;DHT22;9924;50.828;6.440;2023-06-14T02:39:41;12.60;99.90
19555;DHT22;9924;50.828;6.440;2023-06-14T02:42:26;12.60;99.90
19555;DHT22;9924;50.828;6.440;2023-06-14T02:45:10;12.60;99.90
19555;DHT22;9924;50.828;6.440;2023-06-14T02:47:55;12.50;99.90
19555;DHT22;9924;50.828;6.440;2023-06-14T02:50:39;12.40;99.90
19555;DHT22;9924;50.828;6.440;2023-06-14T02:53:24;12.40;99.90
19555;DHT22;9924;50.828;6.440;2023-06-14T02:56:08;12.30;99.90
19555;DHT22;9924;50.828;6.440;2023-06-14T02:58:53;12.30;99.90
19555;DHT22;9924;50.828;6.440;2023-06-14T03:01:37;12.30;99.90
19555;DHT22;9924;50.828;6.440;2023-06-14T03:04:25;12.30;99.90
19555;DHT22;9924;50.828;6.440;2023-06-14T03:07:10;12.40;99.90
19555;DHT22;9924;50.828;6.440;2023-06-14T03:09:55;12.30;99.90
19555;DHT22;9924;50.828;6.440;2023-06-14T03:12:39;12.30;99.90
19555;DHT22;9924;50.828;6.440;2023-06-14T03:15:24;12.30;99.90
19555;DHT22;9924;50.828;6.440;2023-06-14T03:18:09;12.30;99.90
19555;DHT22;9924;50.828;6.440;2023-06-14T03:20:53;12.40;99.90
19555;DHT22;9924;50.828;6.440;2023-06-14T03:23:38;12.40;99.90
19555;DHT22;9924;50.828;6.440;2023-06-14T03:26:23;12.40;99.90
19555;DHT22;9924;50.828;6.440;2023-06-14T03:29:07;12.30;99.90
19555;DHT22;9924;50.828;6.440;2023-06-14T03:32:00;12.30;99.90
19555;DHT22;9924;50.828;6.440;2023-06-14T03:34:44;12.30;99.90
19555;DHT22;9924;50.828;6.440;2023-06-14T03:37:29;12.30;99.90
19555;DHT22;9924;50.828;6.440;2023-06-14T03:40:15;12.30;99.90
19555;DHT22;9924;50.828;6.440;2023-06-14T03:43:00;12.40;99.90
19555;DHT22;9924;50.828;6.440;2023-06-14T03:45:45;12.40;99.90
19555;DHT22;9924;50.828;6.440;2023-06-14T03:48:29;12.50;99.90
19555;DHT22;9924;50.828;6.440;2023-06-14T03:51:14;12.50;99.90
19555;DHT22;9924;50.828;6.440;2023-06-14T03:53:58;12.60;99.90
19555;DHT22;9924;50.828;6.440;2023-06-14T03:56:42;12.60;99.90
19555;DHT22;9924;50.828;6.440;2023-06-14T03:59:27;12.60;99.90
19555;DHT22;9924;50.828;6.440;2023-06-14T04:02:11;12.70;99.90
19555;DHT22;9924;50.828;6.440;2023-06-14T04:04:59;12.70;99.90
19555;DHT22;9924;50.828;6.440;2023-06-14T04:07:43;12.80;99.90
19555;DHT22;9924;50.828;6.440;2023-06-14T04:10:29;12.80;99.90
19555;DHT22;9924;50.828;6.440;2023-06-14T04:13:13;12.80;99.90
19555;DHT22;9924;50.828;6.440;2023-06-14T04:15:57;12.80;99.90
19555;DHT22;9924;50.828;6.440;2023-06-14T04:18:42;12.80;99.90
19555;DHT22;9924;50.828;6.440;2023-06-14T04:21:26;12.80;99.90
19555;DHT22;9924;50.828;6.440;2023-06-14T04:24:12;12.90;99.90
19555;DHT22;9924;50.828;6.440;2023-06-14T04:27:00;13.00;99.90
19555;DHT22;9924;50.828;6.440;2023-06-14T04:29:48;13.10;99.90
19555;DHT22;9924;50.828;6.440;2023-06-14T04:32:33;13.20;99.90
19555;DHT22;9924;50.828;6.440;2023-06-14T04:35:22;13.30;99.90
19555;DHT22;9924;50.828;6.440;2023-06-14T04:38:10;13.30;99.90
19555;DHT22;9924;50.828;6.440;2023-06-14T04:40:54;13.40;99.90
19555;DHT22;9924;50.828;6.440;2023-06-14T04:43:38;13.50;99.90
19555;DHT22;9924;50.828;6.440;2023-06-14T04:46:23;13.70;99.90
19555;DHT22;9924;50.828;6.440;2023-06-14T04:49:08;13.80;99.90
19555;DHT22;9924;50.828;6.440;2023-06-14T04:51:52;13.90;99.90
19555;DHT22;9924;50.828;6.440;2023-06-14T04:54:43;14.10;99.90
19555;DHT22;9924;50.828;6.440;2023-06-14T04:57:27;14.30;99.90
19555;DHT22;9924;50.828;6.440;2023-06-14T05:00:12;14.50;99.90
19555;DHT22;9924;50.828;6.440;2023-06-14T05:02:57;14.70;99.90
19555;DHT22;9924;50.828;6.440;2023-06-14T05:05:41;14.90;99.90
19555;DHT22;9924;50.828;6.440;2023-06-14T05:08:26;15.00;99.90
19555;DHT22;9924;50.828;6.440;2023-06-14T05:11:10;15.20;99.90
19555;DHT22;9924;50.828;6.440;2023-06-14T05:13:55;15.40;99.90
19555;DHT22;9924;50.828;6.440;2023-06-14T05:16:39;15.60;99.90
19555;DHT22;9924;50.828;6.440;2023-06-14T05:19:24;15.90;99.90
19555;DHT22;9924;50.828;6.440;2023-06-14T05:22:09;16.10;99.90
19555;DHT22;9924;50.828;6.440;2023-06-14T05:24:54;16.30;99.90
19555;DHT22;9924;50.828;6.440;2023-06-14T05:27:38;16.60;99.90
19555;DHT22;9924;50.828;6.440;2023-06-14T05:30:25;16.80;99.90
19555;DHT22;9924;50.828;6.440;2023-06-14T05:33:10;17.00;99.90
19555;DHT22;9924;50.828;6.440;2023-06-14T05:35:55;17.30;99.90
19555;DHT22;9924;50.828;6.440;2023-06-14T05:38:39;17.50;99.90
19555;DHT22;9924;50.828;6.440;2023-06-14T05:41:27;17.80;99.90
19555;DHT22;9924;50.828;6.440;2023-06-14T05:44:11;17.90;99.90
19555;DHT22;9924;50.828;6.440;2023-06-14T05:46:56;18.00;99.90
19555;DHT22;9924;50.828;6.440;2023-06-14T05:49:40;18.10;99.90
19555;DHT22;9924;50.828;6.440;2023-06-14T05:52:24;18.20;99.90
19555;DHT22;9924;50.828;6.440;2023-06-14T05:55:09;18.40;99.90
19555;DHT22;9924;50.828;6.440;2023-06-14T05:57:56;18.60;99.90
19555;DHT22;9924;50.828;6.440;2023-06-14T06:00:40;18.80;99.90
19555;DHT22;9924;50.828;6.440;2023-06-14T06:03:25;19.10;99.90
19555;DHT22;9924;50.828;6.440;2023-06-14T06:06:13;19.30;99.90
19555;DHT22;9924;50.828;6.440;2023-06-14T06:08:58;19.30;99.90
19555;DHT22;9924;50.828;6.440;2023-06-14T06:11:42;19.40;99.90
19555;DHT22;9924;50.828;6.440;2023-06-14T06:14:27;19.60;99.90
19555;DHT22;9924;50.828;6.440;2023-06-14T06:17:11;19.70;99.90
19555;DHT22;9924;50.828;6.440;2023-06-14T06:19:55;19.90;99.90
19555;DHT22;9924;50.828;6.440;2023-06-14T06:22:40;19.90;99.90
19555;DHT22;9924;50.828;6.440;2023-06-14T06:25:25;20.00;99.90
19555;DHT22;9924;50.828;6.440;2023-06-14T06:28:10;20.20;99.90
19555;DHT22;9924;50.828;6.440;2023-06-14T06:30:55;20.10;99.90
19555;DHT22;9924;50.828;6.440;2023-06-14T06:33:39;19.90;99.90
19555;DHT22;9924;50.828;6.440;2023-06-14T06:36:24;19.90;99.90
19555;DHT22;9924;50.828;6.440;2023-06-14T06:39:09;20.00;99.90
19555;DHT22;9924;50.828;6.440;2023-06-14T06:41:54;19.90;99.90
19555;DHT22;9924;50.828;6.440;2023-06-14T06:44:38;20.00;99.90
19555;DHT22;9924;50.828;6.440;2023-06-14T06:47:22;20.10;99.90
19555;DHT22;9924;50.828;6.440;2023-06-14T06:50:07;20.30;99.90
19555;DHT22;9924;50.828;6.440;2023-06-14T06:52:52;20.50;99.90
19555;DHT22;9924;50.828;6.440;2023-06-14T06:55:37;20.70;99.90
19555;DHT22;9924;50.828;6.440;2023-06-14T06:58:22;20.90;99.90
19555;DHT22;9924;50.828;6.440;2023-06-14T07:01:06;21.10;99.90
19555;DHT22;9924;50.828;6.440;2023-06-14T07:03:53;21.40;99.90
19555;DHT22;9924;50.828;6.440;2023-06-14T07:06:37;21.70;99.90
19555;DHT22;9924;50.828;6.440;2023-06-14T07:09:22;21.90;99.90
19555;DHT22;9924;50.828;6.440;2023-06-14T07:12:07;22.00;99.90
19555;DHT22;9924;50.828;6.440;2023-06-14T07:14:52;22.30;99.90
19555;DHT22;9924;50.828;6.440;2023-06-14T07:17:36;22.50;99.90
19555;DHT22;9924;50.828;6.440;2023-06-14T07:20:21;22.50;99.90
19555;DHT22;9924;50.828;6.440;2023-06-14T07:23:06;22.50;99.90
19555;DHT22;9924;50.828;6.440;2023-06-14T07:25:51;22.60;99.90
19555;DHT22;9924;50.828;6.440;2023-06-14T07:28:35;22.90;99.90
19555;DHT22;9924;50.828;6.440;2023-06-14T07:31:20;23.10;99.90
19555;DHT22;9924;50.828;6.440;2023-06-14T07:34:04;23.20;99.50
19555;DHT22;9924;50.828;6.440;2023-06-14T07:36:48;23.30;99.50
19555;DHT22;9924;50.828;6.440;2023-06-14T07:39:33;23.50;99.10
19555;DHT22;9924;50.828;6.440;2023-06-14T07:42:17;23.60;98.50
19555;DHT22;9924;50.828;6.440;2023-06-14T07:45:03;23.80;98.00
19555;DHT22;9924;50.828;6.440;2023-06-14T07:47:47;24.10;97.50
19555;DHT22;9924;50.828;6.440;2023-06-14T07:50:32;23.80;97.10
19555;DHT22;9924;50.828;6.440;2023-06-14T07:53:16;23.60;97.10
19555;DHT22;9924;50.828;6.440;2023-06-14T07:56:01;23.50;97.50
19555;DHT22;9924;50.828;6.440;2023-06-14T07:58:46;23.50;97.20
19555;DHT22;9924;50.828;6.440;2023-06-14T08:01:31;23.60;97.30
19555;DHT22;9924;50.828;6.440;2023-06-14T08:04:16;23.60;96.90
19555;DHT22;9924;50.828;6.440;2023-06-14T08:07:00;23.90;97.20
19555;DHT22;9924;50.828;6.440;2023-06-14T08:09:45;24.20;97.40
19555;DHT22;9924;50.828;6.440;2023-06-14T08:12:29;24.30;96.70
19555;DHT22;9924;50.828;6.440;2023-06-14T08:15:14;24.40;96.90
19555;DHT22;9924;50.828;6.440;2023-06-14T08:17:58;24.70;96.90
19555;DHT22;9924;50.828;6.440;2023-06-14T08:20:44;24.80;95.10
19555;DHT22;9924;50.828;6.440;2023-06-14T08:23:29;24.60;95.30
19555;DHT22;9924;50.828;6.440;2023-06-14T08:26:15;24.50;95.50
19555;DHT22;9924;50.828;6.440;2023-06-14T08:28:59;24.70;95.40
19555;DHT22;9924;50.828;6.440;2023-06-14T08:31:44;25.10;95.20
19555;DHT22;9924;50.828;6.440;2023-06-14T08:34:29;25.20;94.40
19555;DHT22;9924;50.828;6.440;2023-06-14T08:37:13;25.10;95.00
19555;DHT22;9924;50.828;6.440;2023-06-14T08:39:58;25.40;94.10
19555;DHT22;9924;50.828;6.440;2023-06-14T08:42:42;25.50;93.90
19555;DHT22;9924;50.828;6.440;2023-06-14T08:45:27;25.60;95.00
19555;DHT22;9924;50.828;6.440;2023-06-14T08:48:11;25.70;93.70
19555;DHT22;9924;50.828;6.440;2023-06-14T08:51:00;25.60;93.80
19555;DHT22;9924;50.828;6.440;2023-06-14T08:53:53;25.50;92.70
19555;DHT22;9924;50.828;6.440;2023-06-14T08:56:38;25.60;92.30
19555;DHT22;9924;50.828;6.440;2023-06-14T08:59:28;25.50;92.20
19555;DHT22;9924;50.828;6.440;2023-06-14T09:02:13;25.40;91.80
19555;DHT22;9924;50.828;6.440;2023-06-14T09:04:58;25.40;93.40
19555;DHT22;9924;50.828;6.440;2023-06-14T09:07:44;25.80;92.80
19555;DHT22;9924;50.828;6.440;2023-06-14T09:10:28;25.80;92.00
19555;DHT22;9924;50.828;6.440;2023-06-14T09:13:12;25.70;91.70
19555;DHT22;9924;50.828;6.440;2023-06-14T09:15:57;25.60;94.40
19555;DHT22;9924;50.828;6.440;2023-06-14T09:18:43;25.90;91.70
19555;DHT22;9924;50.828;6.440;2023-06-14T09:21:33;25.80;91.80
19555;DHT22;9924;50.828;6.440;2023-06-14T09:24:19;26.00;92.30
19555;DHT22;9924;50.828;6.440;2023-06-14T09:27:04;26.40;91.60
19555;DHT22;9924;50.828;6.440;2023-06-14T09:29:48;26.60;90.60
19555;DHT22;9924;50.828;6.440;2023-06-14T09:32:36;26.60;90.20
19555;DHT22;9924;50.828;6.440;2023-06-14T09:35:21;26.40;90.30
19555;DHT22;9924;50.828;6.440;2023-06-14T09:38:06;26.30;91.90
19555;DHT22;9924;50.828;6.440;2023-06-14T09:40:50;26.60;91.80
19555;DHT22;9924;50.828;6.440;2023-06-14T09:43:36;27.10;91.60
19555;DHT22;9924;50.828;6.440;2023-06-14T09:46:21;27.10;89.40
19555;DHT22;9924;50.828;6.440;2023-06-14T09:49:06;27.30;89.30
19555;DHT22;9924;50.828;6.440;2023-06-14T09:51:53;27.50;84.80
19555;DHT22;9924;50.828;6.440;2023-06-14T09:54:42;27.30;85.20
19555;DHT22;9924;50.828;6.440;2023-06-14T09:57:27;27.10;87.50
19555;DHT22;9924;50.828;6.440;2023-06-14T10:00:14;27.50;84.80
19555;DHT22;9924;50.828;6.440;2023-06-14T10:03:05;27.60;81.50
19555;DHT22;9924;50.828;6.440;2023-06-14T10:05:50;27.30;79.00
19555;DHT22;9924;50.828;6.440;2023-06-14T10:08:36;26.80;80.60
19555;DHT22;9924;50.828;6.440;2023-06-14T10:11:21;26.80;80.00
19555;DHT22;9924;50.828;6.440;2023-06-14T10:14:06;27.20;78.30
19555;DHT22;9924;50.828;6.440;2023-06-14T10:17:06;27.40;78.20
19555;DHT22;9924;50.828;6.440;2023-06-14T10:20:03;27.70;79.90
19555;DHT22;9924;50.828;6.440;2023-06-14T10:23:06;28.20;77.10
19555;DHT22;9924;50.828;6.440;2023-06-14T10:25:59;28.50;70.30
19555;DHT22;9924;50.828;6.440;2023-06-14T10:28:59;28.20;69.40
19555;DHT22;9924;50.828;6.440;2023-06-14T10:34:29;27.80;71.10
19555;DHT22;9924;50.828;6.440;2023-06-14T10:37:14;27.90;71.10
19555;DHT22;9924;50.828;6.440;2023-06-14T10:40:00;27.70;69.60
19555;DHT22;9924;50.828;6.440;2023-06-14T10:42:51;27.30;70.00
19555;DHT22;9924;50.828;6.440;2023-06-14T10:45:36;27.30;69.50
19555;DHT22;9924;50.828;6.440;2023-06-14T10:48:29;27.40;68.60
19555;DHT22;9924;50.828;6.440;2023-06-14T10:51:20;26.80;69.60
19555;DHT22;9924;50.828;6.440;2023-06-14T10:54:14;27.20;70.10
19555;DHT22;9924;50.828;6.440;2023-06-14T10:56:59;27.40;69.00
19555;DHT22;9924;50.828;6.440;2023-06-14T10:59:43;28.00;70.10
19555;DHT22;9924;50.828;6.440;2023-06-14T11:06:01;28.40;69.20
19555;DHT22;9924;50.828;6.440;2023-06-14T11:12:17;28.80;65.00
19555;DHT22;9924;50.828;6.440;2023-06-14T11:15:01;29.00;64.30
19555;DHT22;9924;50.828;6.440;2023-06-14T11:17:51;29.20;67.10
19555;DHT22;9924;50.828;6.440;2023-06-14T11:20:37;29.00;66.70
19555;DHT22;9924;50.828;6.440;2023-06-14T11:23:22;28.80;68.00
19555;DHT22;9924;50.828;6.440;2023-06-14T11:26:07;28.60;67.70
19555;DHT22;9924;50.828;6.440;2023-06-14T11:28:55;27.60;71.10
19555;DHT22;9924;50.828;6.440;2023-06-14T11:31:43;28.20;68.80
19555;DHT22;9924;50.828;6.440;2023-06-14T11:34:28;28.70;69.80
19555;DHT22;9924;50.828;6.440;2023-06-14T11:37:13;28.80;68.30
19555;DHT22;9924;50.828;6.440;2023-06-14T11:39:58;28.60;69.30
19555;DHT22;9924;50.828;6.440;2023-06-14T11:42:42;28.90;69.10
19555;DHT22;9924;50.828;6.440;2023-06-14T11:45:28;29.00;69.90
19555;DHT22;9924;50.828;6.440;2023-06-14T11:48:13;29.30;70.60
19555;DHT22;9924;50.828;6.440;2023-06-14T11:50:59;29.10;70.10
19555;DHT22;9924;50.828;6.440;2023-06-14T11:53:43;29.60;70.60
19555;DHT22;9924;50.828;6.440;2023-06-14T11:56:28;29.90;67.60
19555;DHT22;9924;50.828;6.440;2023-06-14T11:59:13;30.20;68.40
19555;DHT22;9924;50.828;6.440;2023-06-14T12:01:58;30.30;65.10
19555;DHT22;9924;50.828;6.440;2023-06-14T12:04:43;29.40;68.10
19555;DHT22;9924;50.828;6.440;2023-06-14T12:07:30;29.40;65.60
19555;DHT22;9924;50.828;6.440;2023-06-14T12:10:15;30.10;66.60
19555;DHT22;9924;50.828;6.440;2023-06-14T12:12:59;30.00;67.40
19555;DHT22;9924;50.828;6.440;2023-06-14T12:15:44;29.70;66.20
19555;DHT22;9924;50.828;6.440;2023-06-14T12:18:35;29.60;66.90
19555;DHT22;9924;50.828;6.440;2023-06-14T12:21:22;29.30;65.70
19555;DHT22;9924;50.828;6.440;2023-06-14T12:24:08;29.30;67.50
19555;DHT22;9924;50.828;6.440;2023-06-14T12:26:52;29.60;66.90
19555;DHT22;9924;50.828;6.440;2023-06-14T12:29:38;29.80;66.80
19555;DHT22;9924;50.828;6.440;2023-06-14T12:32:22;30.10;66.90
19555;DHT22;9924;50.828;6.440;2023-06-14T12:35:06;30.20;65.20
19555;DHT22;9924;50.828;6.440;2023-06-14T12:37:51;30.30;65.60
19555;DHT22;9924;50.828;6.440;2023-06-14T12:40:35;30.20;64.10
19555;DHT22;9924;50.828;6.440;2023-06-14T12:43:21;30.30;66.30
19555;DHT22;9924;50.828;6.440;2023-06-14T12:46:06;30.70;69.80
19555;DHT22;9924;50.828;6.440;2023-06-14T12:48:51;31.00;63.30
19555;DHT22;9924;50.828;6.440;2023-06-14T12:51:35;30.90;64.40
19555;DHT22;9924;50.828;6.440;2023-06-14T12:54:20;31.20;63.60
19555;DHT22;9924;50.828;6.440;2023-06-14T12:57:06;31.70;62.90
19555;DHT22;9924;50.828;6.440;2023-06-14T12:59:51;31.50;63.00
19555;DHT22;9924;50.828;6.440;2023-06-14T13:02:35;31.50;64.60
19555;DHT22;9924;50.828;6.440;2023-06-14T13:05:20;31.80;62.90
19555;DHT22;9924;50.828;6.440;2023-06-14T13:08:04;32.20;65.50
19555;DHT22;9924;50.828;6.440;2023-06-14T13:10:49;30.90;65.50
19555;DHT22;9924;50.828;6.440;2023-06-14T13:13:33;30.60;65.30
19555;DHT22;9924;50.828;6.440;2023-06-14T13:16:18;30.50;64.50
19555;DHT22;9924;50.828;6.440;2023-06-14T13:19:02;30.20;67.00
19555;DHT22;9924;50.828;6.440;2023-06-14T13:21:48;30.50;66.00
19555;DHT22;9924;50.828;6.440;2023-06-14T13:24:33;31.00;64.40
19555;DHT22;9924;50.828;6.440;2023-06-14T13:27:17;30.70;65.90
19555;DHT22;9924;50.828;6.440;2023-06-14T13:30:02;31.20;63.70
19555;DHT22;9924;50.828;6.440;2023-06-14T13:32:47;31.40;65.00
19555;DHT22;9924;50.828;6.440;2023-06-14T13:35:32;31.40;64.30
19555;DHT22;9924;50.828;6.440;2023-06-14T13:38:16;31.20;64.00
19555;DHT22;9924;50.828;6.440;2023-06-14T13:41:01;31.40;64.40
19555;DHT22;9924;50.828;6.440;2023-06-14T13:43:45;31.10;62.50
19555;DHT22;9924;50.828;6.440;2023-06-14T13:46:30;30.50;63.00
19555;DHT22;9924;50.828;6.440;2023-06-14T13:49:15;31.40;63.00
19555;DHT22;9924;50.828;6.440;2023-06-14T13:51:59;31.50;64.00
19555;DHT22;9924;50.828;6.440;2023-06-14T13:54:43;32.20;63.20
19555;DHT22;9924;50.828;6.440;2023-06-14T13:57:28;32.20;63.80
19555;DHT22;9924;50.828;6.440;2023-06-14T14:00:13;32.20;61.50
19555;DHT22;9924;50.828;6.440;2023-06-14T14:02:58;31.60;61.00
19555;DHT22;9924;50.828;6.440;2023-06-14T14:05:44;31.10;62.10
19555;DHT22;9924;50.828;6.440;2023-06-14T14:08:28;30.70;60.90
19555;DHT22;9924;50.828;6.440;2023-06-14T14:11:13;31.20;61.30
19555;DHT22;9924;50.828;6.440;2023-06-14T14:13:57;31.30;61.40
19555;DHT22;9924;50.828;6.440;2023-06-14T14:16:42;31.90;60.60
19555;DHT22;9924;50.828;6.440;2023-06-14T14:19:26;31.60;60.40
19555;DHT22;9924;50.828;6.440;2023-06-14T14:22:10;31.30;61.70
19555;DHT22;9924;50.828;6.440;2023-06-14T14:24:55;32.10;59.20
19555;DHT22;9924;50.828;6.440;2023-06-14T14:27:39;32.50;59.60
19555;DHT22;9924;50.828;6.440;2023-06-14T14:30:24;32.40;59.30
19555;DHT22;9924;50.828;6.440;2023-06-14T14:33:08;32.90;59.30
19555;DHT22;9924;50.828;6.440;2023-06-14T14:35:55;32.70;57.10
19555;DHT22;9924;50.828;6.440;2023-06-14T14:38:39;32.50;58.80
19555;DHT22;9924;50.828;6.440;2023-06-14T14:41:24;31.70;59.60
19555;DHT22;9924;50.828;6.440;2023-06-14T14:44:08;30.90;59.20
19555;DHT22;9924;50.828;6.440;2023-06-14T14:46:52;31.00;59.40
19555;DHT22;9924;50.828;6.440;2023-06-14T14:49:37;30.90;58.50
19555;DHT22;9924;50.828;6.440;2023-06-14T14:52:21;31.40;59.20
19555;DHT22;9924;50.828;6.440;2023-06-14T14:55:06;32.00;57.70
19555;DHT22;9924;50.828;6.440;2023-06-14T14:57:50;31.90;58.00
19555;DHT22;9924;50.828;6.440;2023-06-14T15:00:35;31.80;57.30
19555;DHT22;9924;50.828;6.440;2023-06-14T15:03:20;31.60;57.70
19555;DHT22;9924;50.828;6.440;2023-06-14T15:06:04;32.00;57.30
19555;DHT22;9924;50.828;6.440;2023-06-14T15:08:49;32.50;59.30
19555;DHT22;9924;50.828;6.440;2023-06-14T15:11:34;32.60;57.20
19555;DHT22;9924;50.828;6.440;2023-06-14T15:14:19;32.50;56.00
19555;DHT22;9924;50.828;6.440;2023-06-14T15:17:03;32.20;55.30
19555;DHT22;9924;50.828;6.440;2023-06-14T15:19:48;31.70;55.90
19555;DHT22;9924;50.828;6.440;2023-06-14T15:22:32;31.60;56.90
19555;DHT22;9924;50.828;6.440;2023-06-14T15:25:17;31.70;56.90
19555;DHT22;9924;50.828;6.440;2023-06-14T15:28:01;31.90;55.80
19555;DHT22;9924;50.828;6.440;2023-06-14T15:30:46;32.00;55.90
19555;DHT22;9924;50.828;6.440;2023-06-14T15:33:30;31.70;55.50
19555;DHT22;9924;50.828;6.440;2023-06-14T15:36:15;31.20;55.80
19555;DHT22;9924;50.828;6.440;2023-06-14T15:38:59;30.90;56.40
19555;DHT22;9924;50.828;6.440;2023-06-14T15:41:44;31.10;57.00
19555;DHT22;9924;50.828;6.440;2023-06-14T15:44:28;31.60;55.00
19555;DHT22;9924;50.828;6.440;2023-06-14T15:47:13;31.50;57.20
19555;DHT22;9924;50.828;6.440;2023-06-14T15:49:57;31.70;55.50
19555;DHT22;9924;50.828;6.440;2023-06-14T15:52:42;31.20;56.60
19555;DHT22;9924;50.828;6.440;2023-06-14T15:55:26;30.60;55.60
19555;DHT22;9924;50.828;6.440;2023-06-14T15:58:10;31.00;56.20
19555;DHT22;9924;50.828;6.440;2023-06-14T16:00:55;31.30;56.00
19555;DHT22;9924;50.828;6.440;2023-06-14T16:03:39;30.90;56.20
19555;DHT22;9924;50.828;6.440;2023-06-14T16:06:23;30.80;55.50
19555;DHT22;9924;50.828;6.440;2023-06-14T16:09:08;30.60;56.20
19555;DHT22;9924;50.828;6.440;2023-06-14T16:11:52;30.50;56.50
19555;DHT22;9924;50.828;6.440;2023-06-14T16:14:38;30.50;56.90
19555;DHT22;9924;50.828;6.440;2023-06-14T16:17:22;30.60;55.80
19555;DHT22;9924;50.828;6.440;2023-06-14T16:20:07;30.90;55.90
19555;DHT22;9924;50.828;6.440;2023-06-14T16:22:52;30.80;54.90
19555;DHT22;9924;50.828;6.440;2023-06-14T16:25:36;30.60;56.40
19555;DHT22;9924;50.828;6.440;2023-06-14T16:28:21;30.40;55.60
19555;DHT22;9924;50.828;6.440;2023-06-14T16:31:05;30.30;56.60
19555;DHT22;9924;50.828;6.440;2023-06-14T16:33:50;30.30;56.20
19555;DHT22;9924;50.828;6.440;2023-06-14T16:36:40;30.20;58.70
19555;DHT22;9924;50.828;6.440;2023-06-14T16:39:24;30.50;56.50
19555;DHT22;9924;50.828;6.440;2023-06-14T16:42:09;30.70;56.50
19555;DHT22;9924;50.828;6.440;2023-06-14T16:44:54;30.30;56.60
19555;DHT22;9924;50.828;6.440;2023-06-14T16:47:39;30.00;56.30
19555;DHT22;9924;50.828;6.440;2023-06-14T16:50:23;30.00;58.10
19555;DHT22;9924;50.828;6.440;2023-06-14T16:53:07;30.00;57.40
19555;DHT22;9924;50.828;6.440;2023-06-14T16:55:51;29.90;55.70
19555;DHT22;9924;50.828;6.440;2023-06-14T16:58:36;29.60;57.50
19555;DHT22;9924;50.828;6.440;2023-06-14T17:01:21;29.80;57.20
19555;DHT22;9924;50.828;6.440;2023-06-14T17:04:06;29.60;58.30
19555;DHT22;9924;50.828;6.440;2023-06-14T17:06:49;29.40;57.20
19555;DHT22;9924;50.828;6.440;2023-06-14T17:09:34;29.60;57.10
19555;DHT22;9924;50.828;6.440;2023-06-14T17:12:18;29.30;57.40
19555;DHT22;9924;50.828;6.440;2023-06-14T17:15:04;29.20;58.10
19555;DHT22;9924;50.828;6.440;2023-06-14T17:17:48;29.30;57.70
19555;DHT22;9924;50.828;6.440;2023-06-14T17:20:33;28.70;58.00
19555;DHT22;9924;50.828;6.440;2023-06-14T17:23:17;28.40;58.70
19555;DHT22;9924;50.828;6.440;2023-06-14T17:26:01;28.50;59.30
19555;DHT22;9924;50.828;6.440;2023-06-14T17:28:46;28.60;58.40
19555;DHT22;9924;50.828;6.440;2023-06-14T17:31:30;28.40;59.30
19555;DHT22;9924;50.828;6.440;2023-06-14T17:34:14;28.60;58.50
19555;DHT22;9924;50.828;6.440;2023-06-14T17:36:59;28.80;60.80
19555;DHT22;9924;50.828;6.440;2023-06-14T17:39:43;29.00;58.70
19555;DHT22;9924;50.828;6.440;2023-06-14T17:42:28;28.90;57.70
19555;DHT22;9924;50.828;6.440;2023-06-14T17:45:12;28.50;57.70
19555;DHT22;9924;50.828;6.440;2023-06-14T17:47:57;28.30;59.00
19555;DHT22;9924;50.828;6.440;2023-06-14T17:50:41;28.10;59.80